sensor_id;sensor_type;location;lat;lon;timestamp;temperature;humidity
16966;DHT22;8599;47.852;12.070;2022-07-05T00:02:20;19.90;99.90
16966;DHT22;8599;47.852;12.070;2022-07-05T00:04:47;19.90;99.90
16966;DHT22;8599;47.852;12.070;2022-07-05T00:07:16;19.80;99.90
16966;DHT22;8599;47.852;12.070;2022-07-05T00:09:48;19.70;99.90
16966;DHT22;8599;47.852;12.070;2022-07-05T00:12:16;19.80;99.90
16966;DHT22;8599;47.852;12.070;2022-07-05T00:14:44;19.80;99.90
16966;DHT22;8599;47.852;12.070;2022-07-05T00:17:11;19.90;99.90
16966;DHT22;8599;47.852;12.070;2022-07-05T00:19:39;19.80;99.90
16966;DHT22;8599;47.852;12.070;2022-07-05T00:22:06;19.80;99.90
16966;DHT22;8599;47.852;12.070;2022-07-05T00:24:33;19.90;99.90
16966;DHT22;8599;47.852;12.070;2022-07-05T00:27:01;19.80;99.90
16966;DHT22;8599;47.852;12.070;2022-07-05T00:29:28;19.80;99.90
16966;DHT22;8599;47.852;12.070;2022-07-05T00:31:55;19.80;99.90
16966;DHT22;8599;47.852;12.070;2022-07-05T00:34:22;19.80;99.90
16966;DHT22;8599;47.852;12.070;2022-07-05T00:36:49;19.80;99.90
16966;DHT22;8599;47.852;12.070;2022-07-05T00:39:16;19.80;99.90
16966;DHT22;8599;47.852;12.070;2022-07-05T00:41:43;19.70;99.90
16966;DHT22;8599;47.852;12.070;2022-07-05T00:44:11;19.60;99.90
16966;DHT22;8599;47.852;12.070;2022-07-05T00:46:42;19.60;99.90
16966;DHT22;8599;47.852;12.070;2022-07-05T00:49:09;19.60;99.90
16966;DHT22;8599;47.852;12.070;2022-07-05T00:51:37;19.50;99.90
16966;DHT22;8599;47.852;12.070;2022-07-05T00:54:06;19.60;99.90
16966;DHT22;8599;47.852;12.070;2022-07-05T00:56:33;19.60;99.90
16966;DHT22;8599;47.852;12.070;2022-07-05T00:59:00;19.70;99.90
16966;DHT22;8599;47.852;12.070;2022-07-05T01:01:28;19.70;99.90
16966;DHT22;8599;47.852;12.070;2022-07-05T01:03:55;19.70;99.90
16966;DHT22;8599;47.852;12.070;2022-07-05T01:06:23;19.60;99.90
16966;DHT22;8599;47.852;12.070;2022-07-05T01:08:50;19.60;99.90
16966;DHT22;8599;47.852;12.070;2022-07-05T01:11:17;19.60;99.90
16966;DHT22;8599;47.852;12.070;2022-07-05T01:13:44;19.60;99.90
16966;DHT22;8599;47.852;12.070;2022-07-05T01:16:10;19.60;99.90
16966;DHT22;8599;47.852;12.070;2022-07-05T01:18:41;19.50;99.90
16966;DHT22;8599;47.852;12.070;2022-07-05T01:21:08;19.60;99.90
16966;DHT22;8599;47.852;12.070;2022-07-05T01:23:40;19.50;99.90
16966;DHT22;8599;47.852;12.070;2022-07-05T01:26:07;19.50;99.90
16966;DHT22;8599;47.852;12.070;2022-07-05T01:28:34;19.50;99.90
16966;DHT22;8599;47.852;12.070;2022-07-05T01:31:01;19.50;99.90
16966;DHT22;8599;47.852;12.070;2022-07-05T01:33:28;19.50;99.90
16966;DHT22;8599;47.852;12.070;2022-07-05T01:35:56;19.50;99.90
16966;DHT22;8599;47.852;12.070;2022-07-05T01:38:23;19.60;99.90
16966;DHT22;8599;47.852;12.070;2022-07-05T01:40:52;19.60;99.90
16966;DHT22;8599;47.852;12.070;2022-07-05T01:43:19;19.50;99.90
16966;DHT22;8599;47.852;12.070;2022-07-05T01:45:47;19.50;99.90
16966;DHT22;8599;47.852;12.070;2022-07-05T01:48:15;19.50;99.90
16966;DHT22;8599;47.852;12.070;2022-07-05T01:50:46;19.60;99.90
16966;DHT22;8599;47.852;12.070;2022-07-05T01:53:17;19.50;99.90
16966;DHT22;8599;47.852;12.070;2022-07-05T01:55:44;19.50;99.90
16966;DHT22;8599;47.852;12.070;2022-07-05T01:58:13;19.50;99.90
16966;DHT22;8599;47.852;12.070;2022-07-05T02:00:44;19.50;99.90
16966;DHT22;8599;47.852;12.070;2022-07-05T02:03:12;19.40;99.90
16966;DHT22;8599;47.852;12.070;2022-07-05T02:05:39;19.40;99.90
16966;DHT22;8599;47.852;12.070;2022-07-05T02:08:06;19.40;99.90
16966;DHT22;8599;47.852;12.070;2022-07-05T02:10:34;19.40;99.90
16966;DHT22;8599;47.852;12.070;2022-07-05T02:13:01;19.30;99.90
16966;DHT22;8599;47.852;12.070;2022-07-05T02:15:31;19.30;99.90
16966;DHT22;8599;47.852;12.070;2022-07-05T02:17:58;19.40;99.90
16966;DHT22;8599;47.852;12.070;2022-07-05T02:20:25;19.30;99.90
16966;DHT22;8599;47.852;12.070;2022-07-05T02:22:53;19.30;99.90
16966;DHT22;8599;47.852;12.070;2022-07-05T02:25:19;19.30;99.90
16966;DHT22;8599;47.852;12.070;2022-07-05T02:27:47;19.30;99.90
16966;DHT22;8599;47.852;12.070;2022-07-05T02:30:14;19.20;99.90
16966;DHT22;8599;47.852;12.070;2022-07-05T02:32:42;19.20;99.90
16966;DHT22;8599;47.852;12.070;2022-07-05T02:35:10;19.10;99.90
16966;DHT22;8599;47.852;12.070;2022-07-05T02:37:38;19.20;99.90
16966;DHT22;8599;47.852;12.070;2022-07-05T02:40:06;19.20;99.90
16966;DHT22;8599;47.852;12.070;2022-07-05T02:42:33;19.20;99.90
16966;DHT22;8599;47.852;12.070;2022-07-05T02:45:00;19.20;99.90
16966;DHT22;8599;47.852;12.070;2022-07-05T02:47:29;19.20;99.90
16966;DHT22;8599;47.852;12.070;2022-07-05T02:49:58;19.20;99.90
16966;DHT22;8599;47.852;12.070;2022-07-05T02:52:27;19.20;99.90
16966;DHT22;8599;47.852;12.070;2022-07-05T02:54:54;19.20;99.90
16966;DHT22;8599;47.852;12.070;2022-07-05T02:57:21;19.30;99.90
16966;DHT22;8599;47.852;12.070;2022-07-05T02:59:48;19.20;99.90
16966;DHT22;8599;47.852;12.070;2022-07-05T03:02:14;19.10;99.90
16966;DHT22;8599;47.852;12.070;2022-07-05T03:04:41;19.20;99.90
16966;DHT22;8599;47.852;12.070;2022-07-05T03:07:09;19.20;99.90
16966;DHT22;8599;47.852;12.070;2022-07-05T03:09:36;19.20;99.90
16966;DHT22;8599;47.852;12.070;2022-07-05T03:12:04;19.30;99.90
16966;DHT22;8599;47.852;12.070;2022-07-05T03:14:31;19.30;99.90
16966;DHT22;8599;47.852;12.070;2022-07-05T03:16:58;19.30;99.90
16966;DHT22;8599;47.852;12.070;2022-07-05T03:19:25;19.30;99.90
16966;DHT22;8599;47.852;12.070;2022-07-05T03:21:52;19.20;99.90
16966;DHT22;8599;47.852;12.070;2022-07-05T03:24:20;19.20;99.90
16966;DHT22;8599;47.852;12.070;2022-07-05T03:26:47;19.10;99.90
16966;DHT22;8599;47.852;12.070;2022-07-05T03:29:13;19.00;99.90
16966;DHT22;8599;47.852;12.070;2022-07-05T03:31:40;18.90;99.90
16966;DHT22;8599;47.852;12.070;2022-07-05T03:34:07;19.00;99.90
16966;DHT22;8599;47.852;12.070;2022-07-05T03:36:34;19.00;99.90
16966;DHT22;8599;47.852;12.070;2022-07-05T03:39:01;19.00;99.90
16966;DHT22;8599;47.852;12.070;2022-07-05T03:41:29;18.90;99.90
16966;DHT22;8599;47.852;12.070;2022-07-05T03:43:56;18.90;99.90
16966;DHT22;8599;47.852;12.070;2022-07-05T03:46:22;18.90;99.90
16966;DHT22;8599;47.852;12.070;2022-07-05T03:48:49;18.90;99.90
16966;DHT22;8599;47.852;12.070;2022-07-05T03:51:17;18.90;99.90
16966;DHT22;8599;47.852;12.070;2022-07-05T03:53:44;18.90;99.90
16966;DHT22;8599;47.852;12.070;2022-07-05T03:56:11;19.00;99.90
16966;DHT22;8599;47.852;12.070;2022-07-05T03:58:39;19.00;99.90
16966;DHT22;8599;47.852;12.070;2022-07-05T04:01:06;19.00;99.90
16966;DHT22;8599;47.852;12.070;2022-07-05T04:03:33;19.10;99.90
16966;DHT22;8599;47.852;12.070;2022-07-05T04:06:00;19.10;99.90
16966;DHT22;8599;47.852;12.070;2022-07-05T04:08:26;19.10;99.90
16966;DHT22;8599;47.852;12.070;2022-07-05T04:10:53;19.10;99.90
16966;DHT22;8599;47.852;12.070;2022-07-05T04:13:20;19.20;99.90
16966;DHT22;8599;47.852;12.070;2022-07-05T04:15:48;19.20;99.90
16966;DHT22;8599;47.852;12.070;2022-07-05T04:18:15;19.20;99.90
16966;DHT22;8599;47.852;12.070;2022-07-05T04:20:42;19.20;99.90
16966;DHT22;8599;47.852;12.070;2022-07-05T04:23:09;19.20;99.90
16966;DHT22;8599;47.852;12.070;2022-07-05T04:25:35;19.20;99.90
16966;DHT22;8599;47.852;12.070;2022-07-05T04:28:03;19.20;99.90
16966;DHT22;8599;47.852;12.070;2022-07-05T04:30:30;19.20;99.90
16966;DHT22;8599;47.852;12.070;2022-07-05T04:32:58;19.20;99.90
16966;DHT22;8599;47.852;12.070;2022-07-05T04:35:25;19.40;99.90
16966;DHT22;8599;47.852;12.070;2022-07-05T04:37:52;19.40;99.90
16966;DHT22;8599;47.852;12.070;2022-07-05T04:40:19;19.30;99.90
16966;DHT22;8599;47.852;12.070;2022-07-05T04:42:46;19.30;99.90
16966;DHT22;8599;47.852;12.070;2022-07-05T04:45:12;19.30;99.90
16966;DHT22;8599;47.852;12.070;2022-07-05T04:47:39;19.20;99.90
16966;DHT22;8599;47.852;12.070;2022-07-05T04:50:08;19.30;99.90
16966;DHT22;8599;47.852;12.070;2022-07-05T04:52:35;19.20;99.90
16966;DHT22;8599;47.852;12.070;2022-07-05T04:55:03;19.30;99.90
16966;DHT22;8599;47.852;12.070;2022-07-05T04:57:36;19.40;99.90
16966;DHT22;8599;47.852;12.070;2022-07-05T05:00:04;19.50;99.90
16966;DHT22;8599;47.852;12.070;2022-07-05T05:02:31;19.50;99.90
16966;DHT22;8599;47.852;12.070;2022-07-05T05:04:58;19.70;99.90
16966;DHT22;8599;47.852;12.070;2022-07-05T05:07:26;19.90;99.90
16966;DHT22;8599;47.852;12.070;2022-07-05T05:09:53;20.00;99.90
16966;DHT22;8599;47.852;12.070;2022-07-05T05:12:20;20.00;99.90
16966;DHT22;8599;47.852;12.070;2022-07-05T05:14:48;20.10;99.90
16966;DHT22;8599;47.852;12.070;2022-07-05T05:17:15;20.10;99.90
16966;DHT22;8599;47.852;12.070;2022-07-05T05:19:42;20.20;99.90
16966;DHT22;8599;47.852;12.070;2022-07-05T05:22:09;20.10;99.90
16966;DHT22;8599;47.852;12.070;2022-07-05T05:24:38;20.20;99.90
16966;DHT22;8599;47.852;12.070;2022-07-05T05:27:05;20.30;99.90
16966;DHT22;8599;47.852;12.070;2022-07-05T05:29:32;20.50;99.90
16966;DHT22;8599;47.852;12.070;2022-07-05T05:31:59;20.50;99.90
16966;DHT22;8599;47.852;12.070;2022-07-05T05:34:26;20.70;99.90
16966;DHT22;8599;47.852;12.070;2022-07-05T05:36:53;20.60;99.90
16966;DHT22;8599;47.852;12.070;2022-07-05T05:39:20;20.70;99.90
16966;DHT22;8599;47.852;12.070;2022-07-05T05:41:48;20.80;99.90
16966;DHT22;8599;47.852;12.070;2022-07-05T05:44:15;20.90;99.90
16966;DHT22;8599;47.852;12.070;2022-07-05T05:46:42;20.90;99.90
16966;DHT22;8599;47.852;12.070;2022-07-05T05:49:09;21.00;99.90
16966;DHT22;8599;47.852;12.070;2022-07-05T05:51:35;21.10;99.90
16966;DHT22;8599;47.852;12.070;2022-07-05T05:54:02;21.20;99.90
16966;DHT22;8599;47.852;12.070;2022-07-05T05:56:29;21.10;99.90
16966;DHT22;8599;47.852;12.070;2022-07-05T05:58:57;21.20;99.90
16966;DHT22;8599;47.852;12.070;2022-07-05T06:01:24;21.20;99.90
16966;DHT22;8599;47.852;12.070;2022-07-05T06:03:51;21.30;99.90
16966;DHT22;8599;47.852;12.070;2022-07-05T06:06:18;21.40;99.90
16966;DHT22;8599;47.852;12.070;2022-07-05T06:08:45;21.40;99.90
16966;DHT22;8599;47.852;12.070;2022-07-05T06:11:11;21.40;99.90
16966;DHT22;8599;47.852;12.070;2022-07-05T06:13:39;21.50;99.90
16966;DHT22;8599;47.852;12.070;2022-07-05T06:16:07;21.40;99.90
16966;DHT22;8599;47.852;12.070;2022-07-05T06:18:34;21.50;99.90
16966;DHT22;8599;47.852;12.070;2022-07-05T06:21:01;21.50;99.90
16966;DHT22;8599;47.852;12.070;2022-07-05T06:23:28;21.70;99.90
16966;DHT22;8599;47.852;12.070;2022-07-05T06:25:55;21.80;99.90
16966;DHT22;8599;47.852;12.070;2022-07-05T06:28:22;21.90;99.90
16966;DHT22;8599;47.852;12.070;2022-07-05T06:30:49;21.90;99.90
16966;DHT22;8599;47.852;12.070;2022-07-05T06:33:19;22.00;99.90
16966;DHT22;8599;47.852;12.070;2022-07-05T06:35:46;22.00;99.90
16966;DHT22;8599;47.852;12.070;2022-07-05T06:38:13;22.10;99.90
16966;DHT22;8599;47.852;12.070;2022-07-05T06:40:42;21.90;99.90
16966;DHT22;8599;47.852;12.070;2022-07-05T06:43:11;21.70;99.90
16966;DHT22;8599;47.852;12.070;2022-07-05T06:45:38;21.60;99.90
16966;DHT22;8599;47.852;12.070;2022-07-05T06:48:06;21.50;99.90
16966;DHT22;8599;47.852;12.070;2022-07-05T06:50:36;21.40;99.90
16966;DHT22;8599;47.852;12.070;2022-07-05T06:53:04;21.30;99.90
16966;DHT22;8599;47.852;12.070;2022-07-05T06:55:31;21.40;99.90
16966;DHT22;8599;47.852;12.070;2022-07-05T06:58:00;21.40;99.90
16966;DHT22;8599;47.852;12.070;2022-07-05T07:00:27;21.50;99.90
16966;DHT22;8599;47.852;12.070;2022-07-05T07:02:54;21.70;99.90
16966;DHT22;8599;47.852;12.070;2022-07-05T07:05:21;21.80;99.90
16966;DHT22;8599;47.852;12.070;2022-07-05T07:07:50;21.80;99.90
16966;DHT22;8599;47.852;12.070;2022-07-05T07:10:34;21.90;99.90
16966;DHT22;8599;47.852;12.070;2022-07-05T07:13:02;22.00;99.90
16966;DHT22;8599;47.852;12.070;2022-07-05T07:15:29;21.90;99.90
16966;DHT22;8599;47.852;12.070;2022-07-05T07:17:56;22.00;99.90
16966;DHT22;8599;47.852;12.070;2022-07-05T07:20:23;21.90;99.90
16966;DHT22;8599;47.852;12.070;2022-07-05T07:22:52;21.90;99.90
16966;DHT22;8599;47.852;12.070;2022-07-05T07:25:19;21.90;99.90
16966;DHT22;8599;47.852;12.070;2022-07-05T07:27:50;22.00;99.90
16966;DHT22;8599;47.852;12.070;2022-07-05T07:30:18;22.00;99.90
16966;DHT22;8599;47.852;12.070;2022-07-05T07:32:46;22.00;99.90
16966;DHT22;8599;47.852;12.070;2022-07-05T07:35:13;22.10;99.90
16966;DHT22;8599;47.852;12.070;2022-07-05T07:37:40;22.00;99.90
16966;DHT22;8599;47.852;12.070;2022-07-05T07:40:09;22.10;99.90
16966;DHT22;8599;47.852;12.070;2022-07-05T07:42:36;22.20;99.90
16966;DHT22;8599;47.852;12.070;2022-07-05T07:45:04;22.30;99.90
16966;DHT22;8599;47.852;12.070;2022-07-05T07:47:32;22.40;99.90
16966;DHT22;8599;47.852;12.070;2022-07-05T07:49:59;22.40;99.90
16966;DHT22;8599;47.852;12.070;2022-07-05T07:52:26;22.60;99.90
16966;DHT22;8599;47.852;12.070;2022-07-05T07:54:53;22.70;99.90
16966;DHT22;8599;47.852;12.070;2022-07-05T07:57:21;22.70;99.90
16966;DHT22;8599;47.852;12.070;2022-07-05T07:59:48;22.60;99.90
16966;DHT22;8599;47.852;12.070;2022-07-05T08:02:15;22.60;99.90
16966;DHT22;8599;47.852;12.070;2022-07-05T08:04:42;22.60;99.90
16966;DHT22;8599;47.852;12.070;2022-07-05T08:07:09;22.60;99.90
16966;DHT22;8599;47.852;12.070;2022-07-05T08:09:36;22.60;99.90
16966;DHT22;8599;47.852;12.070;2022-07-05T08:12:04;22.70;99.90
16966;DHT22;8599;47.852;12.070;2022-07-05T08:14:32;22.60;99.90
16966;DHT22;8599;47.852;12.070;2022-07-05T08:16:59;22.60;99.90
16966;DHT22;8599;47.852;12.070;2022-07-05T08:19:26;22.50;99.90
16966;DHT22;8599;47.852;12.070;2022-07-05T08:22:10;22.50;99.90
16966;DHT22;8599;47.852;12.070;2022-07-05T08:24:39;22.60;99.90
16966;DHT22;8599;47.852;12.070;2022-07-05T08:27:06;22.60;99.90
16966;DHT22;8599;47.852;12.070;2022-07-05T08:29:34;22.70;99.90
16966;DHT22;8599;47.852;12.070;2022-07-05T08:32:01;22.70;99.90
16966;DHT22;8599;47.852;12.070;2022-07-05T08:34:28;22.80;99.90
16966;DHT22;8599;47.852;12.070;2022-07-05T08:36:55;22.80;99.90
16966;DHT22;8599;47.852;12.070;2022-07-05T08:39:22;22.90;99.90
16966;DHT22;8599;47.852;12.070;2022-07-05T08:41:50;22.90;99.90
16966;DHT22;8599;47.852;12.070;2022-07-05T08:44:19;22.90;99.90
16966;DHT22;8599;47.852;12.070;2022-07-05T08:46:49;23.00;99.90
16966;DHT22;8599;47.852;12.070;2022-07-05T08:49:20;23.00;99.90
16966;DHT22;8599;47.852;12.070;2022-07-05T08:51:48;23.00;99.90
16966;DHT22;8599;47.852;12.070;2022-07-05T08:54:16;23.00;99.90
16966;DHT22;8599;47.852;12.070;2022-07-05T08:56:43;23.20;99.90
16966;DHT22;8599;47.852;12.070;2022-07-05T08:59:10;23.30;99.90
16966;DHT22;8599;47.852;12.070;2022-07-05T09:01:38;23.50;99.90
16966;DHT22;8599;47.852;12.070;2022-07-05T09:04:07;23.50;99.90
16966;DHT22;8599;47.852;12.070;2022-07-05T09:06:38;23.30;99.90
16966;DHT22;8599;47.852;12.070;2022-07-05T09:09:05;23.40;99.90
16966;DHT22;8599;47.852;12.070;2022-07-05T09:11:36;23.30;99.90
16966;DHT22;8599;47.852;12.070;2022-07-05T09:14:04;23.20;99.90
16966;DHT22;8599;47.852;12.070;2022-07-05T09:16:31;23.20;99.90
16966;DHT22;8599;47.852;12.070;2022-07-05T09:19:05;23.20;99.90
16966;DHT22;8599;47.852;12.070;2022-07-05T09:21:33;23.20;99.90
16966;DHT22;8599;47.852;12.070;2022-07-05T09:24:03;23.30;99.90
16966;DHT22;8599;47.852;12.070;2022-07-05T09:26:34;23.40;99.90
16966;DHT22;8599;47.852;12.070;2022-07-05T09:29:03;23.60;99.90
16966;DHT22;8599;47.852;12.070;2022-07-05T09:31:34;23.70;99.90
16966;DHT22;8599;47.852;12.070;2022-07-05T09:34:04;23.80;99.90
16966;DHT22;8599;47.852;12.070;2022-07-05T09:36:53;23.80;99.90
16966;DHT22;8599;47.852;12.070;2022-07-05T09:39:39;23.90;99.90
16966;DHT22;8599;47.852;12.070;2022-07-05T09:42:10;23.90;99.90
16966;DHT22;8599;47.852;12.070;2022-07-05T09:44:38;23.90;99.90
16966;DHT22;8599;47.852;12.070;2022-07-05T09:47:08;24.00;99.90
16966;DHT22;8599;47.852;12.070;2022-07-05T09:49:37;23.90;99.90
16966;DHT22;8599;47.852;12.070;2022-07-05T09:52:06;23.90;99.90
16966;DHT22;8599;47.852;12.070;2022-07-05T09:54:33;23.80;99.90
16966;DHT22;8599;47.852;12.070;2022-07-05T09:57:00;23.70;99.90
16966;DHT22;8599;47.852;12.070;2022-07-05T09:59:27;23.80;99.90
16966;DHT22;8599;47.852;12.070;2022-07-05T10:01:53;23.80;99.90
16966;DHT22;8599;47.852;12.070;2022-07-05T10:04:20;23.80;99.90
16966;DHT22;8599;47.852;12.070;2022-07-05T10:06:47;23.70;99.90
16966;DHT22;8599;47.852;12.070;2022-07-05T10:09:16;23.50;99.90
16966;DHT22;8599;47.852;12.070;2022-07-05T10:11:44;23.40;99.90
16966;DHT22;8599;47.852;12.070;2022-07-05T10:14:15;23.30;99.90
16966;DHT22;8599;47.852;12.070;2022-07-05T10:16:46;23.10;99.90
16966;DHT22;8599;47.852;12.070;2022-07-05T10:19:18;23.10;99.90
16966;DHT22;8599;47.852;12.070;2022-07-05T10:21:46;23.00;99.90
16966;DHT22;8599;47.852;12.070;2022-07-05T10:24:16;23.10;99.90
16966;DHT22;8599;47.852;12.070;2022-07-05T10:26:44;23.00;99.90
16966;DHT22;8599;47.852;12.070;2022-07-05T10:29:13;23.00;99.90
16966;DHT22;8599;47.852;12.070;2022-07-05T10:31:41;23.00;99.90
16966;DHT22;8599;47.852;12.070;2022-07-05T10:34:09;23.00;99.90
16966;DHT22;8599;47.852;12.070;2022-07-05T10:36:38;22.90;99.90
16966;DHT22;8599;47.852;12.070;2022-07-05T10:39:07;22.80;99.90
16966;DHT22;8599;47.852;12.070;2022-07-05T10:41:37;22.80;99.90
16966;DHT22;8599;47.852;12.070;2022-07-05T10:44:05;22.70;99.90
16966;DHT22;8599;47.852;12.070;2022-07-05T10:46:36;22.70;99.90
16966;DHT22;8599;47.852;12.070;2022-07-05T10:49:11;22.80;99.90
16966;DHT22;8599;47.852;12.070;2022-07-05T10:51:38;23.00;99.90
16966;DHT22;8599;47.852;12.070;2022-07-05T10:54:05;23.00;99.90
16966;DHT22;8599;47.852;12.070;2022-07-05T10:56:32;23.10;99.90
16966;DHT22;8599;47.852;12.070;2022-07-05T10:59:07;23.20;99.90
16966;DHT22;8599;47.852;12.070;2022-07-05T11:01:38;23.50;99.90
16966;DHT22;8599;47.852;12.070;2022-07-05T11:04:32;23.60;99.90
16966;DHT22;8599;47.852;12.070;2022-07-05T11:07:01;23.70;99.90
16966;DHT22;8599;47.852;12.070;2022-07-05T11:09:28;23.70;99.90
16966;DHT22;8599;47.852;12.070;2022-07-05T11:12:08;23.70;99.90
16966;DHT22;8599;47.852;12.070;2022-07-05T11:14:38;23.70;99.90
16966;DHT22;8599;47.852;12.070;2022-07-05T11:17:27;23.60;99.90
16966;DHT22;8599;47.852;12.070;2022-07-05T11:20:03;23.50;99.90
16966;DHT22;8599;47.852;12.070;2022-07-05T11:22:30;23.60;99.90
16966;DHT22;8599;47.852;12.070;2022-07-05T11:24:58;23.50;99.90
16966;DHT22;8599;47.852;12.070;2022-07-05T11:27:26;23.60;99.90
16966;DHT22;8599;47.852;12.070;2022-07-05T11:29:55;23.60;99.90
16966;DHT22;8599;47.852;12.070;2022-07-05T11:32:23;23.50;99.90
16966;DHT22;8599;47.852;12.070;2022-07-05T11:34:52;23.60;99.90
16966;DHT22;8599;47.852;12.070;2022-07-05T11:37:20;23.70;99.90
16966;DHT22;8599;47.852;12.070;2022-07-05T11:42:58;24.00;99.90
16966;DHT22;8599;47.852;12.070;2022-07-05T11:45:26;24.20;99.90
16966;DHT22;8599;47.852;12.070;2022-07-05T11:47:54;24.50;99.90
16966;DHT22;8599;47.852;12.070;2022-07-05T11:50:27;24.80;99.90
16966;DHT22;8599;47.852;12.070;2022-07-05T11:52:54;25.00;99.90
16966;DHT22;8599;47.852;12.070;2022-07-05T11:55:24;25.00;99.90
16966;DHT22;8599;47.852;12.070;2022-07-05T11:57:53;24.90;99.90
16966;DHT22;8599;47.852;12.070;2022-07-05T12:00:32;24.70;99.90
16966;DHT22;8599;47.852;12.070;2022-07-05T12:03:09;24.60;99.90
16966;DHT22;8599;47.852;12.070;2022-07-05T12:05:37;24.50;99.90
16966;DHT22;8599;47.852;12.070;2022-07-05T12:08:04;24.60;99.90
16966;DHT22;8599;47.852;12.070;2022-07-05T12:10:31;24.90;99.90
16966;DHT22;8599;47.852;12.070;2022-07-05T12:13:16;25.30;99.90
16966;DHT22;8599;47.852;12.070;2022-07-05T12:15:44;25.30;99.90
16966;DHT22;8599;47.852;12.070;2022-07-05T12:18:12;25.20;99.90
16966;DHT22;8599;47.852;12.070;2022-07-05T12:20:40;25.20;99.90
16966;DHT22;8599;47.852;12.070;2022-07-05T12:23:07;25.20;99.90
16966;DHT22;8599;47.852;12.070;2022-07-05T12:25:34;25.20;99.90
16966;DHT22;8599;47.852;12.070;2022-07-05T12:28:03;25.50;99.90
16966;DHT22;8599;47.852;12.070;2022-07-05T12:30:32;25.90;99.90
16966;DHT22;8599;47.852;12.070;2022-07-05T12:33:02;26.20;99.90
16966;DHT22;8599;47.852;12.070;2022-07-05T12:35:33;26.30;99.90
16966;DHT22;8599;47.852;12.070;2022-07-05T12:38:05;26.10;99.30
16966;DHT22;8599;47.852;12.070;2022-07-05T12:40:33;25.60;99.90
16966;DHT22;8599;47.852;12.070;2022-07-05T12:43:08;25.20;99.90
16966;DHT22;8599;47.852;12.070;2022-07-05T12:45:36;24.90;99.90
16966;DHT22;8599;47.852;12.070;2022-07-05T12:48:07;24.70;99.90
16966;DHT22;8599;47.852;12.070;2022-07-05T12:50:48;24.70;99.90
16966;DHT22;8599;47.852;12.070;2022-07-05T12:53:16;24.70;99.90
16966;DHT22;8599;47.852;12.070;2022-07-05T12:56:02;24.60;99.90
16966;DHT22;8599;47.852;12.070;2022-07-05T12:58:48;24.30;99.90
16966;DHT22;8599;47.852;12.070;2022-07-05T13:01:22;24.30;99.90
16966;DHT22;8599;47.852;12.070;2022-07-05T13:04:02;24.20;99.90
16966;DHT22;8599;47.852;12.070;2022-07-05T13:06:49;24.10;99.90
16966;DHT22;8599;47.852;12.070;2022-07-05T13:09:30;24.10;99.90
16966;DHT22;8599;47.852;12.070;2022-07-05T13:12:09;24.00;99.90
16966;DHT22;8599;47.852;12.070;2022-07-05T13:14:37;23.90;99.90
16966;DHT22;8599;47.852;12.070;2022-07-05T13:17:05;23.90;99.90
16966;DHT22;8599;47.852;12.070;2022-07-05T13:19:34;23.80;99.90
16966;DHT22;8599;47.852;12.070;2022-07-05T13:22:01;23.70;99.90
16966;DHT22;8599;47.852;12.070;2022-07-05T13:24:28;23.80;99.90
16966;DHT22;8599;47.852;12.070;2022-07-05T13:26:55;23.70;99.90
16966;DHT22;8599;47.852;12.070;2022-07-05T13:29:23;23.70;99.90
16966;DHT22;8599;47.852;12.070;2022-07-05T13:31:49;23.70;99.90
16966;DHT22;8599;47.852;12.070;2022-07-05T13:34:16;23.80;99.90
16966;DHT22;8599;47.852;12.070;2022-07-05T13:36:44;23.80;99.90
16966;DHT22;8599;47.852;12.070;2022-07-05T13:39:12;23.90;99.90
16966;DHT22;8599;47.852;12.070;2022-07-05T13:41:38;24.20;99.90
16966;DHT22;8599;47.852;12.070;2022-07-05T13:44:05;24.30;99.90
16966;DHT22;8599;47.852;12.070;2022-07-05T13:46:32;24.30;99.90
16966;DHT22;8599;47.852;12.070;2022-07-05T13:48:59;24.40;99.90
16966;DHT22;8599;47.852;12.070;2022-07-05T13:51:26;24.70;99.90
16966;DHT22;8599;47.852;12.070;2022-07-05T13:53:54;24.80;99.90
16966;DHT22;8599;47.852;12.070;2022-07-05T13:56:21;25.00;99.90
16966;DHT22;8599;47.852;12.070;2022-07-05T13:58:48;25.10;99.90
16966;DHT22;8599;47.852;12.070;2022-07-05T14:01:15;25.30;99.90
16966;DHT22;8599;47.852;12.070;2022-07-05T14:03:42;25.40;99.90
16966;DHT22;8599;47.852;12.070;2022-07-05T14:06:09;25.70;99.90
16966;DHT22;8599;47.852;12.070;2022-07-05T14:08:36;26.00;99.90
16966;DHT22;8599;47.852;12.070;2022-07-05T14:11:04;26.00;99.90
16966;DHT22;8599;47.852;12.070;2022-07-05T14:13:35;25.70;99.10
16966;DHT22;8599;47.852;12.070;2022-07-05T14:16:02;25.40;99.40
16966;DHT22;8599;47.852;12.070;2022-07-05T14:18:29;25.30;99.90
16966;DHT22;8599;47.852;12.070;2022-07-05T14:20:56;25.30;99.30
16966;DHT22;8599;47.852;12.070;2022-07-05T14:23:22;25.20;99.80
16966;DHT22;8599;47.852;12.070;2022-07-05T14:25:49;25.10;99.90
16966;DHT22;8599;47.852;12.070;2022-07-05T14:28:18;25.10;99.90
16966;DHT22;8599;47.852;12.070;2022-07-05T14:30:46;25.10;98.50
16966;DHT22;8599;47.852;12.070;2022-07-05T14:33:14;25.00;98.70
16966;DHT22;8599;47.852;12.070;2022-07-05T14:35:41;25.10;98.90
16966;DHT22;8599;47.852;12.070;2022-07-05T14:38:08;25.10;98.60
16966;DHT22;8599;47.852;12.070;2022-07-05T14:40:35;25.00;98.20
16966;DHT22;8599;47.852;12.070;2022-07-05T14:43:02;25.00;99.90
16966;DHT22;8599;47.852;12.070;2022-07-05T14:45:31;25.10;99.90
16966;DHT22;8599;47.852;12.070;2022-07-05T14:47:58;25.20;98.80
16966;DHT22;8599;47.852;12.070;2022-07-05T14:50:25;25.30;99.30
16966;DHT22;8599;47.852;12.070;2022-07-05T14:52:51;25.50;97.70
16966;DHT22;8599;47.852;12.070;2022-07-05T14:55:18;25.50;97.60
16966;DHT22;8599;47.852;12.070;2022-07-05T14:57:46;25.50;97.40
16966;DHT22;8599;47.852;12.070;2022-07-05T15:00:14;25.30;97.30
16966;DHT22;8599;47.852;12.070;2022-07-05T15:02:43;25.10;98.70
16966;DHT22;8599;47.852;12.070;2022-07-05T15:05:10;25.20;97.60
16966;DHT22;8599;47.852;12.070;2022-07-05T15:07:37;25.60;97.20
16966;DHT22;8599;47.852;12.070;2022-07-05T15:10:06;26.30;95.50
16966;DHT22;8599;47.852;12.070;2022-07-05T15:12:33;26.80;95.20
16966;DHT22;8599;47.852;12.070;2022-07-05T15:14:59;27.10;95.80
16966;DHT22;8599;47.852;12.070;2022-07-05T15:17:26;27.40;94.50
16966;DHT22;8599;47.852;12.070;2022-07-05T15:19:55;27.60;93.70
16966;DHT22;8599;47.852;12.070;2022-07-05T15:22:22;27.70;94.70
16966;DHT22;8599;47.852;12.070;2022-07-05T15:24:51;27.90;94.40
16966;DHT22;8599;47.852;12.070;2022-07-05T15:27:18;28.00;94.00
16966;DHT22;8599;47.852;12.070;2022-07-05T15:29:45;27.80;93.80
16966;DHT22;8599;47.852;12.070;2022-07-05T15:32:12;27.50;93.20
16966;DHT22;8599;47.852;12.070;2022-07-05T15:34:39;27.10;93.80
16966;DHT22;8599;47.852;12.070;2022-07-05T15:37:07;26.90;93.90
16966;DHT22;8599;47.852;12.070;2022-07-05T15:39:34;26.80;93.70
16966;DHT22;8599;47.852;12.070;2022-07-05T15:42:03;26.50;92.50